KBGR/BGR METAR and TAF weather

Enter ICAO airport designator
Station Type Date Time Source
KBGR METAR 2018/07/16 23:53 UTC NOAA

KBGR 162353Z 17006KT 10SM FEW100 SCT250 22/18 A2994 RMK AO2 SLP135 T02220183 10300 20222 51001


Station Type Date Time Source
KBGR Decoded METAR 2018/07/16 23:53 UTC NOAA

BANGOR INT'L AIRPORT, ME, United States (KBGR) 44-48N 068-49W 57M
Jul 16, 2018 - 07:53 PM EDT / 2018.07.16 2353 UTC
Wind: from the S (170 degrees) at 7 MPH (6 KT):0
Visibility: 10 mile(s):0
Sky conditions: partly cloudy
Temperature: 72.0 F (22.2 C)
Dew Point: 64.9 F (18.3 C)
Relative Humidity: 78%
Pressure (altimeter): 29.94 in. Hg (1013 hPa)
Pressure tendency: 0.00 inches (0.1 hPa) higher than three hours ago
ob: KBGR 162353Z 17006KT 10SM FEW100 SCT250 22/18 A2994 RMK AO2 SLP135 T02220183 10300 20222 51001
cycle: 0

Station Type Date Time Source
KBGR TAF 2018/07/16 18:22 UTC NOAA

TAF KBGR 161720Z 1618/1718 19004KT P6SM SCT250
FM170000 18004KT P6SM BKN005
FM170600 17004KT 1SM BR OVC003
FM171200 17006KT P6SM VCSH OVC005


Example: see airport list